sensor_id;sensor_type;location;lat;lon;timestamp;pressure;altitude;pressure_sealevel;temperature;humidity
56681;BME280;42558;52.388;13.390;2023-07-28T00:00:43;99804.36;;;15.57;100.00
56681;BME280;42558;52.388;13.390;2023-07-28T00:03:13;99803.00;;;15.55;100.00
56681;BME280;42558;52.388;13.390;2023-07-28T00:05:43;99794.89;;;15.53;100.00
56681;BME280;42558;52.388;13.390;2023-07-28T00:08:13;99794.70;;;15.54;100.00
56681;BME280;42558;52.388;13.390;2023-07-28T00:10:43;99798.70;;;15.58;100.00
56681;BME280;42558;52.388;13.390;2023-07-28T00:13:13;99791.41;;;15.59;100.00
56681;BME280;42558;52.388;13.390;2023-07-28T00:15:43;99789.84;;;15.59;100.00
56681;BME280;42558;52.388;13.390;2023-07-28T00:18:12;99792.47;;;15.59;100.00
56681;BME280;42558;52.388;13.390;2023-07-28T00:20:42;99790.14;;;15.62;100.00
56681;BME280;42558;52.388;13.390;2023-07-28T00:23:12;99779.84;;;15.63;100.00
56681;BME280;42558;52.388;13.390;2023-07-28T00:25:42;99774.52;;;15.62;100.00
56681;BME280;42558;52.388;13.390;2023-07-28T00:28:12;99770.09;;;15.62;100.00
56681;BME280;42558;52.388;13.390;2023-07-28T00:30:43;99773.95;;;15.64;100.00
56681;BME280;42558;52.388;13.390;2023-07-28T00:33:13;99772.86;;;15.66;100.00
56681;BME280;42558;52.388;13.390;2023-07-28T00:35:43;99767.16;;;15.67;100.00
56681;BME280;42558;52.388;13.390;2023-07-28T00:38:13;99767.31;;;15.68;100.00
56681;BME280;42558;52.388;13.390;2023-07-28T00:40:43;99764.11;;;15.68;100.00
56681;BME280;42558;52.388;13.390;2023-07-28T00:43:12;99764.04;;;15.71;100.00
56681;BME280;42558;52.388;13.390;2023-07-28T00:45:43;99765.41;;;15.73;100.00
56681;BME280;42558;52.388;13.390;2023-07-28T00:48:16;99769.09;;;15.75;100.00
56681;BME280;42558;52.388;13.390;2023-07-28T00:50:48;99763.49;;;15.72;100.00
56681;BME280;42558;52.388;13.390;2023-07-28T00:53:20;99768.25;;;15.73;100.00
56681;BME280;42558;52.388;13.390;2023-07-28T00:55:51;99770.30;;;15.76;100.00
56681;BME280;42558;52.388;13.390;2023-07-28T00:58:22;99765.00;;;15.76;100.00
56681;BME280;42558;52.388;13.390;2023-07-28T01:00:52;99764.09;;;15.76;100.00
56681;BME280;42558;52.388;13.390;2023-07-28T01:03:23;99758.90;;;15.79;100.00
56681;BME280;42558;52.388;13.390;2023-07-28T01:09:04;99759.21;;;15.81;100.00
56681;BME280;42558;52.388;13.390;2023-07-28T01:11:35;99757.59;;;15.82;100.00
56681;BME280;42558;52.388;13.390;2023-07-28T01:14:05;99756.67;;;15.83;100.00
56681;BME280;42558;52.388;13.390;2023-07-28T01:16:35;99752.90;;;15.85;100.00
56681;BME280;42558;52.388;13.390;2023-07-28T01:19:06;99742.61;;;15.86;100.00
56681;BME280;42558;52.388;13.390;2023-07-28T01:21:37;99741.33;;;15.87;100.00
56681;BME280;42558;52.388;13.390;2023-07-28T01:25:05;99738.30;;;15.88;100.00
56681;BME280;42558;52.388;13.390;2023-07-28T01:27:38;99740.06;;;15.88;100.00
56681;BME280;42558;52.388;13.390;2023-07-28T01:30:13;99735.58;;;15.90;100.00
56681;BME280;42558;52.388;13.390;2023-07-28T01:32:45;99733.25;;;15.91;100.00
56681;BME280;42558;52.388;13.390;2023-07-28T01:35:15;99735.88;;;15.93;100.00
56681;BME280;42558;52.388;13.390;2023-07-28T01:37:44;99732.33;;;15.93;100.00
56681;BME280;42558;52.388;13.390;2023-07-28T01:40:20;99735.45;;;15.95;100.00
56681;BME280;42558;52.388;13.390;2023-07-28T01:42:50;99733.83;;;15.96;100.00
56681;BME280;42558;52.388;13.390;2023-07-28T01:45:20;99735.74;;;15.97;100.00
56681;BME280;42558;52.388;13.390;2023-07-28T01:47:50;99742.63;;;15.99;100.00
56681;BME280;42558;52.388;13.390;2023-07-28T01:50:20;99742.73;;;16.02;100.00
56681;BME280;42558;52.388;13.390;2023-07-28T01:52:48;99740.54;;;16.04;100.00
56681;BME280;42558;52.388;13.390;2023-07-28T01:55:17;99738.96;;;16.03;100.00
56681;BME280;42558;52.388;13.390;2023-07-28T01:57:56;99735.92;;;16.05;100.00
56681;BME280;42558;52.388;13.390;2023-07-28T02:00:27;99732.88;;;16.06;100.00
56681;BME280;42558;52.388;13.390;2023-07-28T02:02:57;99729.13;;;16.07;100.00
56681;BME280;42558;52.388;13.390;2023-07-28T02:05:29;99729.23;;;16.10;100.00
56681;BME280;42558;52.388;13.390;2023-07-28T02:07:59;99731.89;;;16.10;100.00
56681;BME280;42558;52.388;13.390;2023-07-28T02:10:29;99731.69;;;16.11;100.00
56681;BME280;42558;52.388;13.390;2023-07-28T02:12:59;99732.21;;;16.12;100.00
56681;BME280;42558;52.388;13.390;2023-07-28T02:15:29;99732.38;;;16.12;100.00
56681;BME280;42558;52.388;13.390;2023-07-28T02:18:00;99735.90;;;16.13;100.00
56681;BME280;42558;52.388;13.390;2023-07-28T02:20:30;99737.30;;;16.14;100.00
56681;BME280;42558;52.388;13.390;2023-07-28T02:22:59;99738.67;;;16.15;100.00
56681;BME280;42558;52.388;13.390;2023-07-28T02:25:27;99735.33;;;16.15;100.00
56681;BME280;42558;52.388;13.390;2023-07-28T02:27:55;99738.14;;;16.16;100.00
56681;BME280;42558;52.388;13.390;2023-07-28T02:30:23;99737.63;;;16.15;100.00
56681;BME280;42558;52.388;13.390;2023-07-28T02:32:52;99738.30;;;16.16;100.00
56681;BME280;42558;52.388;13.390;2023-07-28T02:35:20;99734.77;;;16.16;100.00
56681;BME280;42558;52.388;13.390;2023-07-28T02:37:49;99727.90;;;16.14;100.00
56681;BME280;42558;52.388;13.390;2023-07-28T02:40:17;99726.77;;;16.16;100.00
56681;BME280;42558;52.388;13.390;2023-07-28T02:42:45;99721.99;;;16.16;100.00
56681;BME280;42558;52.388;13.390;2023-07-28T02:45:14;99724.63;;;16.17;100.00
56681;BME280;42558;52.388;13.390;2023-07-28T02:47:42;99721.48;;;16.15;100.00
56681;BME280;42558;52.388;13.390;2023-07-28T02:50:11;99717.39;;;16.16;100.00
56681;BME280;42558;52.388;13.390;2023-07-28T02:52:39;99721.80;;;16.16;100.00
56681;BME280;42558;52.388;13.390;2023-07-28T02:55:08;99722.54;;;16.15;100.00
56681;BME280;42558;52.388;13.390;2023-07-28T02:57:36;99720.07;;;16.15;100.00
56681;BME280;42558;52.388;13.390;2023-07-28T03:00:06;99721.09;;;16.16;100.00
56681;BME280;42558;52.388;13.390;2023-07-28T03:02:36;99720.54;;;16.17;100.00
56681;BME280;42558;52.388;13.390;2023-07-28T03:05:05;99718.99;;;16.15;100.00
56681;BME280;42558;52.388;13.390;2023-07-28T03:07:33;99718.42;;;16.16;100.00
56681;BME280;42558;52.388;13.390;2023-07-28T03:10:01;99722.35;;;16.16;100.00
56681;BME280;42558;52.388;13.390;2023-07-28T03:12:29;99726.59;;;16.16;100.00
56681;BME280;42558;52.388;13.390;2023-07-28T03:14:58;99725.48;;;16.18;100.00
56681;BME280;42558;52.388;13.390;2023-07-28T03:17:26;99726.56;;;16.17;100.00
56681;BME280;42558;52.388;13.390;2023-07-28T03:19:55;99731.71;;;16.17;100.00
56681;BME280;42558;52.388;13.390;2023-07-28T03:22:23;99737.73;;;16.17;100.00
56681;BME280;42558;52.388;13.390;2023-07-28T03:24:51;99737.19;;;16.19;100.00
56681;BME280;42558;52.388;13.390;2023-07-28T03:27:20;99735.74;;;16.20;100.00
56681;BME280;42558;52.388;13.390;2023-07-28T03:29:48;99736.63;;;16.19;100.00
56681;BME280;42558;52.388;13.390;2023-07-28T03:32:17;99741.92;;;16.20;100.00
56681;BME280;42558;52.388;13.390;2023-07-28T03:34:45;99737.33;;;16.20;100.00
56681;BME280;42558;52.388;13.390;2023-07-28T03:37:14;99738.67;;;16.22;100.00
56681;BME280;42558;52.388;13.390;2023-07-28T03:39:42;99743.08;;;16.23;100.00
56681;BME280;42558;52.388;13.390;2023-07-28T03:42:10;99742.18;;;16.23;100.00
56681;BME280;42558;52.388;13.390;2023-07-28T03:44:39;99740.02;;;16.25;100.00
56681;BME280;42558;52.388;13.390;2023-07-28T03:47:11;99744.80;;;16.25;100.00
56681;BME280;42558;52.388;13.390;2023-07-28T03:49:41;99750.27;;;16.27;100.00
56681;BME280;42558;52.388;13.390;2023-07-28T03:52:11;99751.83;;;16.28;100.00
56681;BME280;42558;52.388;13.390;2023-07-28T03:54:41;99752.48;;;16.29;100.00
56681;BME280;42558;52.388;13.390;2023-07-28T03:57:10;99749.27;;;16.30;100.00
56681;BME280;42558;52.388;13.390;2023-07-28T03:59:40;99751.40;;;16.30;100.00
56681;BME280;42558;52.388;13.390;2023-07-28T04:02:10;99755.48;;;16.31;100.00
56681;BME280;42558;52.388;13.390;2023-07-28T04:04:40;99756.34;;;16.32;100.00
56681;BME280;42558;52.388;13.390;2023-07-28T04:07:10;99758.80;;;16.32;100.00
56681;BME280;42558;52.388;13.390;2023-07-28T04:09:40;99757.16;;;16.34;100.00
56681;BME280;42558;52.388;13.390;2023-07-28T04:12:10;99761.05;;;16.35;100.00
56681;BME280;42558;52.388;13.390;2023-07-28T04:14:40;99760.80;;;16.37;100.00
56681;BME280;42558;52.388;13.390;2023-07-28T04:17:10;99760.23;;;16.39;100.00
56681;BME280;42558;52.388;13.390;2023-07-28T04:19:41;99756.98;;;16.41;100.00
56681;BME280;42558;52.388;13.390;2023-07-28T04:22:11;99764.92;;;16.42;100.00
56681;BME280;42558;52.388;13.390;2023-07-28T04:24:41;99769.34;;;16.43;100.00
56681;BME280;42558;52.388;13.390;2023-07-28T04:27:11;99773.20;;;16.45;100.00
56681;BME280;42558;52.388;13.390;2023-07-28T04:29:41;99775.45;;;16.47;100.00
56681;BME280;42558;52.388;13.390;2023-07-28T04:32:11;99775.88;;;16.50;100.00
56681;BME280;42558;52.388;13.390;2023-07-28T04:34:42;99776.55;;;16.53;100.00
56681;BME280;42558;52.388;13.390;2023-07-28T04:37:11;99774.04;;;16.54;100.00
56681;BME280;42558;52.388;13.390;2023-07-28T04:39:41;99773.54;;;16.52;100.00
56681;BME280;42558;52.388;13.390;2023-07-28T04:42:11;99770.48;;;16.53;100.00
56681;BME280;42558;52.388;13.390;2023-07-28T04:44:41;99769.45;;;16.53;100.00
56681;BME280;42558;52.388;13.390;2023-07-28T04:47:11;99769.59;;;16.54;100.00
56681;BME280;42558;52.388;13.390;2023-07-28T04:49:41;99771.23;;;16.59;100.00
56681;BME280;42558;52.388;13.390;2023-07-28T04:52:11;99773.44;;;16.56;100.00
56681;BME280;42558;52.388;13.390;2023-07-28T04:54:41;99773.13;;;16.54;100.00
56681;BME280;42558;52.388;13.390;2023-07-28T04:57:12;99769.96;;;16.53;100.00
56681;BME280;42558;52.388;13.390;2023-07-28T04:59:45;99774.00;;;16.55;100.00
56681;BME280;42558;52.388;13.390;2023-07-28T05:02:15;99771.63;;;16.57;100.00
56681;BME280;42558;52.388;13.390;2023-07-28T05:04:44;99773.17;;;16.59;100.00
56681;BME280;42558;52.388;13.390;2023-07-28T05:07:14;99777.59;;;16.60;100.00
56681;BME280;42558;52.388;13.390;2023-07-28T05:09:44;99774.00;;;16.61;100.00
56681;BME280;42558;52.388;13.390;2023-07-28T05:12:15;99773.21;;;16.65;100.00
56681;BME280;42558;52.388;13.390;2023-07-28T05:14:45;99770.73;;;16.64;100.00
56681;BME280;42558;52.388;13.390;2023-07-28T05:17:15;99773.48;;;16.68;100.00
56681;BME280;42558;52.388;13.390;2023-07-28T05:19:50;99778.48;;;16.74;100.00
56681;BME280;42558;52.388;13.390;2023-07-28T05:22:20;99781.23;;;16.78;100.00
56681;BME280;42558;52.388;13.390;2023-07-28T05:24:50;99784.93;;;16.78;100.00
56681;BME280;42558;52.388;13.390;2023-07-28T05:27:23;99792.26;;;16.83;100.00
56681;BME280;42558;52.388;13.390;2023-07-28T05:29:53;99790.98;;;16.84;100.00
56681;BME280;42558;52.388;13.390;2023-07-28T05:32:23;99792.73;;;16.85;100.00
56681;BME280;42558;52.388;13.390;2023-07-28T05:34:53;99798.98;;;16.90;100.00
56681;BME280;42558;52.388;13.390;2023-07-28T05:37:23;99800.69;;;16.86;100.00
56681;BME280;42558;52.388;13.390;2023-07-28T05:39:54;99796.94;;;16.87;100.00
56681;BME280;42558;52.388;13.390;2023-07-28T05:42:23;99800.40;;;16.84;100.00
56681;BME280;42558;52.388;13.390;2023-07-28T05:44:54;99801.59;;;16.86;100.00
56681;BME280;42558;52.388;13.390;2023-07-28T05:47:24;99802.37;;;16.83;100.00
56681;BME280;42558;52.388;13.390;2023-07-28T05:49:53;99802.56;;;16.83;100.00
56681;BME280;42558;52.388;13.390;2023-07-28T05:52:21;99802.00;;;16.84;100.00
56681;BME280;42558;52.388;13.390;2023-07-28T05:54:53;99801.45;;;16.84;100.00
56681;BME280;42558;52.388;13.390;2023-07-28T05:57:21;99800.53;;;16.85;100.00
56681;BME280;42558;52.388;13.390;2023-07-28T05:59:50;99801.79;;;16.85;100.00
56681;BME280;42558;52.388;13.390;2023-07-28T06:02:18;99803.25;;;16.90;100.00
56681;BME280;42558;52.388;13.390;2023-07-28T06:04:47;99801.14;;;16.89;100.00
56681;BME280;42558;52.388;13.390;2023-07-28T06:07:15;99805.89;;;16.91;100.00
56681;BME280;42558;52.388;13.390;2023-07-28T06:09:43;99811.42;;;16.90;100.00
56681;BME280;42558;52.388;13.390;2023-07-28T06:12:12;99814.11;;;16.89;100.00
56681;BME280;42558;52.388;13.390;2023-07-28T06:14:40;99819.85;;;16.93;100.00
56681;BME280;42558;52.388;13.390;2023-07-28T06:17:09;99822.26;;;16.96;100.00
56681;BME280;42558;52.388;13.390;2023-07-28T06:19:38;99829.16;;;16.97;100.00
56681;BME280;42558;52.388;13.390;2023-07-28T06:22:06;99831.29;;;17.04;100.00
56681;BME280;42558;52.388;13.390;2023-07-28T06:24:34;99837.71;;;17.09;100.00
56681;BME280;42558;52.388;13.390;2023-07-28T06:27:03;99842.91;;;17.14;100.00
56681;BME280;42558;52.388;13.390;2023-07-28T06:29:37;99846.83;;;17.26;100.00
56681;BME280;42558;52.388;13.390;2023-07-28T06:32:07;99854.47;;;17.26;100.00
56681;BME280;42558;52.388;13.390;2023-07-28T06:34:37;99853.88;;;17.28;100.00
56681;BME280;42558;52.388;13.390;2023-07-28T06:37:07;99855.77;;;17.30;100.00
56681;BME280;42558;52.388;13.390;2023-07-28T06:39:37;99859.30;;;17.31;100.00
56681;BME280;42558;52.388;13.390;2023-07-28T06:42:07;99858.60;;;17.36;100.00
56681;BME280;42558;52.388;13.390;2023-07-28T06:44:37;99863.17;;;17.44;100.00
56681;BME280;42558;52.388;13.390;2023-07-28T06:47:07;99866.34;;;17.57;100.00
56681;BME280;42558;52.388;13.390;2023-07-28T06:49:37;99870.66;;;17.67;100.00
56681;BME280;42558;52.388;13.390;2023-07-28T06:52:08;99866.23;;;17.74;100.00
56681;BME280;42558;52.388;13.390;2023-07-28T06:54:37;99865.39;;;17.73;100.00
56681;BME280;42558;52.388;13.390;2023-07-28T06:57:08;99868.75;;;17.79;100.00
56681;BME280;42558;52.388;13.390;2023-07-28T06:59:38;99869.74;;;17.93;100.00
56681;BME280;42558;52.388;13.390;2023-07-28T07:02:07;99870.00;;;18.07;100.00
56681;BME280;42558;52.388;13.390;2023-07-28T07:04:35;99869.29;;;18.14;100.00
56681;BME280;42558;52.388;13.390;2023-07-28T07:07:06;99873.45;;;18.05;100.00
56681;BME280;42558;52.388;13.390;2023-07-28T07:09:35;99874.79;;;17.91;100.00
56681;BME280;42558;52.388;13.390;2023-07-28T07:12:04;99873.61;;;17.84;100.00
56681;BME280;42558;52.388;13.390;2023-07-28T07:14:32;99873.68;;;17.98;100.00
56681;BME280;42558;52.388;13.390;2023-07-28T07:17:00;99874.84;;;18.01;100.00
56681;BME280;42558;52.388;13.390;2023-07-28T07:19:29;99881.89;;;18.03;100.00
56681;BME280;42558;52.388;13.390;2023-07-28T07:21:57;99886.86;;;18.15;100.00
56681;BME280;42558;52.388;13.390;2023-07-28T07:24:25;99888.09;;;18.15;100.00
56681;BME280;42558;52.388;13.390;2023-07-28T07:26:54;99891.53;;;18.08;100.00
56681;BME280;42558;52.388;13.390;2023-07-28T07:29:22;99886.48;;;18.10;100.00
56681;BME280;42558;52.388;13.390;2023-07-28T07:31:50;99888.14;;;18.08;100.00
56681;BME280;42558;52.388;13.390;2023-07-28T07:34:24;99887.14;;;18.06;100.00
56681;BME280;42558;52.388;13.390;2023-07-28T07:36:54;99890.94;;;17.98;100.00
56681;BME280;42558;52.388;13.390;2023-07-28T07:39:25;99893.76;;;17.99;100.00
56681;BME280;42558;52.388;13.390;2023-07-28T07:41:55;99894.88;;;17.97;100.00
56681;BME280;42558;52.388;13.390;2023-07-28T07:44:26;99894.50;;;18.03;100.00
56681;BME280;42558;52.388;13.390;2023-07-28T07:46:55;99898.48;;;18.13;100.00
56681;BME280;42558;52.388;13.390;2023-07-28T07:49:25;99897.39;;;18.13;100.00
56681;BME280;42558;52.388;13.390;2023-07-28T07:51:53;99899.06;;;18.22;100.00
56681;BME280;42558;52.388;13.390;2023-07-28T07:54:22;99899.58;;;18.17;100.00
56681;BME280;42558;52.388;13.390;2023-07-28T07:56:51;99900.84;;;18.34;100.00
56681;BME280;42558;52.388;13.390;2023-07-28T07:59:19;99899.57;;;18.62;100.00
56681;BME280;42558;52.388;13.390;2023-07-28T08:01:47;99903.17;;;18.88;100.00
56681;BME280;42558;52.388;13.390;2023-07-28T08:04:16;99903.42;;;19.01;100.00
56681;BME280;42558;52.388;13.390;2023-07-28T08:06:44;99905.77;;;19.06;100.00
56681;BME280;42558;52.388;13.390;2023-07-28T08:09:12;99910.80;;;19.10;100.00
56681;BME280;42558;52.388;13.390;2023-07-28T08:11:41;99918.19;;;19.02;100.00
56681;BME280;42558;52.388;13.390;2023-07-28T08:14:09;99915.90;;;19.06;100.00
56681;BME280;42558;52.388;13.390;2023-07-28T08:16:38;99914.21;;;18.88;100.00
56681;BME280;42558;52.388;13.390;2023-07-28T08:19:06;99913.60;;;19.06;100.00
56681;BME280;42558;52.388;13.390;2023-07-28T08:21:34;99909.30;;;19.61;100.00
56681;BME280;42558;52.388;13.390;2023-07-28T08:24:06;99912.39;;;19.98;100.00
56681;BME280;42558;52.388;13.390;2023-07-28T08:26:34;99910.97;;;19.93;100.00
56681;BME280;42558;52.388;13.390;2023-07-28T08:29:03;99919.23;;;20.68;100.00
56681;BME280;42558;52.388;13.390;2023-07-28T08:31:31;99913.52;;;20.73;100.00
56681;BME280;42558;52.388;13.390;2023-07-28T08:34:00;99919.36;;;20.43;100.00
56681;BME280;42558;52.388;13.390;2023-07-28T08:36:28;99926.45;;;20.26;100.00
56681;BME280;42558;52.388;13.390;2023-07-28T08:38:56;99926.54;;;20.56;100.00
56681;BME280;42558;52.388;13.390;2023-07-28T08:41:25;99929.63;;;20.85;99.80
56681;BME280;42558;52.388;13.390;2023-07-28T08:43:53;99929.69;;;20.79;99.94
56681;BME280;42558;52.388;13.390;2023-07-28T08:46:23;99928.92;;;20.84;99.70
56681;BME280;42558;52.388;13.390;2023-07-28T08:48:54;99937.34;;;20.53;99.92
56681;BME280;42558;52.388;13.390;2023-07-28T08:51:24;99939.40;;;20.23;100.00
56681;BME280;42558;52.388;13.390;2023-07-28T08:53:54;99935.19;;;19.80;100.00
56681;BME280;42558;52.388;13.390;2023-07-28T08:56:24;99938.57;;;19.99;100.00
56681;BME280;42558;52.388;13.390;2023-07-28T08:58:58;99943.09;;;20.38;100.00
56681;BME280;42558;52.388;13.390;2023-07-28T09:01:29;99941.40;;;20.72;100.00
56681;BME280;42558;52.388;13.390;2023-07-28T09:04:00;99939.19;;;20.99;100.00
56681;BME280;42558;52.388;13.390;2023-07-28T09:06:30;99942.67;;;21.10;98.98
56681;BME280;42558;52.388;13.390;2023-07-28T09:09:01;99956.42;;;20.93;98.50
56681;BME280;42558;52.388;13.390;2023-07-28T09:11:30;99955.64;;;20.82;98.99
56681;BME280;42558;52.388;13.390;2023-07-28T09:14:01;99952.45;;;20.64;100.00
56681;BME280;42558;52.388;13.390;2023-07-28T09:16:32;99959.92;;;20.56;100.00
56681;BME280;42558;52.388;13.390;2023-07-28T09:19:07;99962.66;;;20.31;100.00
56681;BME280;42558;52.388;13.390;2023-07-28T09:21:41;99960.61;;;20.11;100.00
56681;BME280;42558;52.388;13.390;2023-07-28T09:24:13;99966.42;;;19.89;100.00
56681;BME280;42558;52.388;13.390;2023-07-28T09:26:46;99971.81;;;19.69;100.00
56681;BME280;42558;52.388;13.390;2023-07-28T09:29:19;99978.52;;;19.55;100.00
56681;BME280;42558;52.388;13.390;2023-07-28T09:31:50;99981.79;;;19.23;100.00
56681;BME280;42558;52.388;13.390;2023-07-28T09:34:25;99990.44;;;19.10;100.00
56681;BME280;42558;52.388;13.390;2023-07-28T09:37:00;99990.63;;;18.99;100.00
56681;BME280;42558;52.388;13.390;2023-07-28T09:39:30;99994.04;;;18.98;100.00
56681;BME280;42558;52.388;13.390;2023-07-28T09:42:02;99994.73;;;18.77;100.00
56681;BME280;42558;52.388;13.390;2023-07-28T09:44:32;99995.13;;;18.81;100.00
56681;BME280;42558;52.388;13.390;2023-07-28T09:47:02;100000.36;;;18.79;100.00
56681;BME280;42558;52.388;13.390;2023-07-28T09:49:37;99994.71;;;18.72;100.00
56681;BME280;42558;52.388;13.390;2023-07-28T09:52:09;99998.96;;;18.61;100.00
56681;BME280;42558;52.388;13.390;2023-07-28T09:54:43;99996.70;;;18.71;100.00
56681;BME280;42558;52.388;13.390;2023-07-28T09:57:20;99996.17;;;18.93;100.00
56681;BME280;42558;52.388;13.390;2023-07-28T09:59:55;99993.98;;;19.00;100.00
56681;BME280;42558;52.388;13.390;2023-07-28T10:02:25;99997.64;;;18.86;100.00
56681;BME280;42558;52.388;13.390;2023-07-28T10:04:54;99997.55;;;18.89;100.00
56681;BME280;42558;52.388;13.390;2023-07-28T10:07:25;99988.80;;;19.00;100.00
56681;BME280;42558;52.388;13.390;2023-07-28T10:09:55;99985.73;;;19.12;100.00
56681;BME280;42558;52.388;13.390;2023-07-28T10:12:25;99988.64;;;19.21;100.00
56681;BME280;42558;52.388;13.390;2023-07-28T10:15:03;99992.51;;;19.17;100.00
56681;BME280;42558;52.388;13.390;2023-07-28T10:17:34;99994.69;;;19.37;100.00
56681;BME280;42558;52.388;13.390;2023-07-28T10:20:06;99991.69;;;19.71;100.00
56681;BME280;42558;52.388;13.390;2023-07-28T10:22:44;99997.30;;;20.36;100.00
56681;BME280;42558;52.388;13.390;2023-07-28T10:25:22;99997.33;;;20.31;100.00
56681;BME280;42558;52.388;13.390;2023-07-28T10:27:53;99997.08;;;20.32;100.00
56681;BME280;42558;52.388;13.390;2023-07-28T10:30:24;100001.05;;;20.55;100.00
56681;BME280;42558;52.388;13.390;2023-07-28T10:32:55;100001.67;;;20.62;100.00
56681;BME280;42558;52.388;13.390;2023-07-28T10:35:26;100004.46;;;20.72;100.00
56681;BME280;42558;52.388;13.390;2023-07-28T10:38:28;100005.54;;;20.77;100.00
56681;BME280;42558;52.388;13.390;2023-07-28T10:41:18;100005.20;;;20.81;100.00
56681;BME280;42558;52.388;13.390;2023-07-28T10:43:48;100013.09;;;21.02;100.00
56681;BME280;42558;52.388;13.390;2023-07-28T10:46:21;100008.88;;;21.08;99.98
56681;BME280;42558;52.388;13.390;2023-07-28T10:48:51;100002.89;;;21.40;100.00
56681;BME280;42558;52.388;13.390;2023-07-28T10:51:26;100002.89;;;21.65;98.28
56681;BME280;42558;52.388;13.390;2023-07-28T10:54:01;100003.21;;;21.33;97.82
56681;BME280;42558;52.388;13.390;2023-07-28T10:56:34;100002.60;;;21.22;98.34
56681;BME280;42558;52.388;13.390;2023-07-28T10:59:04;99999.35;;;21.31;99.34
56681;BME280;42558;52.388;13.390;2023-07-28T11:01:38;99997.46;;;21.08;99.17
56681;BME280;42558;52.388;13.390;2023-07-28T11:04:18;99996.27;;;21.41;98.08
56681;BME280;42558;52.388;13.390;2023-07-28T11:06:50;99995.24;;;21.92;97.20
56681;BME280;42558;52.388;13.390;2023-07-28T11:09:23;99995.71;;;22.01;92.92
56681;BME280;42558;52.388;13.390;2023-07-28T11:11:53;100000.86;;;21.75;91.70
56681;BME280;42558;52.388;13.390;2023-07-28T11:14:23;99996.29;;;21.69;90.96
56681;BME280;42558;52.388;13.390;2023-07-28T11:16:55;100000.68;;;21.98;88.98
56681;BME280;42558;52.388;13.390;2023-07-28T11:19:22;100001.61;;;21.70;88.41
56681;BME280;42558;52.388;13.390;2023-07-28T11:21:55;100007.06;;;21.56;87.71
56681;BME280;42558;52.388;13.390;2023-07-28T11:24:22;100005.48;;;21.59;88.17
56681;BME280;42558;52.388;13.390;2023-07-28T11:26:51;100008.04;;;21.74;88.25
56681;BME280;42558;52.388;13.390;2023-07-28T11:29:21;100006.66;;;21.81;86.85
56681;BME280;42558;52.388;13.390;2023-07-28T11:31:50;100009.32;;;22.09;85.19
56681;BME280;42558;52.388;13.390;2023-07-28T11:34:18;100009.79;;;22.64;84.94
56681;BME280;42558;52.388;13.390;2023-07-28T11:36:47;100010.29;;;23.34;82.53
56681;BME280;42558;52.388;13.390;2023-07-28T11:39:16;100008.77;;;23.29;80.01
56681;BME280;42558;52.388;13.390;2023-07-28T11:41:44;100008.20;;;23.26;79.37
56681;BME280;42558;52.388;13.390;2023-07-28T11:44:16;100016.62;;;22.79;78.64
56681;BME280;42558;52.388;13.390;2023-07-28T11:46:46;100015.13;;;22.65;80.98
56681;BME280;42558;52.388;13.390;2023-07-28T11:49:17;100014.38;;;22.43;80.58
56681;BME280;42558;52.388;13.390;2023-07-28T11:51:51;100014.27;;;22.72;80.09
56681;BME280;42558;52.388;13.390;2023-07-28T11:54:24;100015.36;;;22.94;77.42
56681;BME280;42558;52.388;13.390;2023-07-28T11:56:56;100016.83;;;23.29;78.04
56681;BME280;42558;52.388;13.390;2023-07-28T11:59:27;100017.52;;;23.75;77.43
56681;BME280;42558;52.388;13.390;2023-07-28T12:01:59;100020.13;;;23.52;74.65
56681;BME280;42558;52.388;13.390;2023-07-28T12:04:40;100023.02;;;23.17;76.47
56681;BME280;42558;52.388;13.390;2023-07-28T12:07:17;100032.10;;;23.07;77.20
56681;BME280;42558;52.388;13.390;2023-07-28T12:12:28;100039.02;;;22.87;76.66
56681;BME280;42558;52.388;13.390;2023-07-28T12:14:59;100046.06;;;22.74;82.24
56681;BME280;42558;52.388;13.390;2023-07-28T12:17:37;100048.80;;;22.54;86.22
56681;BME280;42558;52.388;13.390;2023-07-28T12:20:10;100053.10;;;22.16;88.75
56681;BME280;42558;52.388;13.390;2023-07-28T12:22:42;100060.75;;;21.72;91.49
56681;BME280;42558;52.388;13.390;2023-07-28T12:25:12;100056.16;;;21.45;93.78
56681;BME280;42558;52.388;13.390;2023-07-28T12:27:42;100061.14;;;21.29;95.33
56681;BME280;42558;52.388;13.390;2023-07-28T12:30:13;100071.33;;;21.07;96.98
56681;BME280;42558;52.388;13.390;2023-07-28T12:32:46;100071.04;;;21.18;97.48
56681;BME280;42558;52.388;13.390;2023-07-28T12:35:19;100083.20;;;21.09;96.68
56681;BME280;42558;52.388;13.390;2023-07-28T12:38:12;100089.05;;;21.50;97.17
56681;BME280;42558;52.388;13.390;2023-07-28T12:40:45;100084.52;;;21.77;95.90
56681;BME280;42558;52.388;13.390;2023-07-28T12:43:18;100094.77;;;21.37;95.80
56681;BME280;42558;52.388;13.390;2023-07-28T12:45:49;100095.86;;;21.10;97.71
56681;BME280;42558;52.388;13.390;2023-07-28T12:48:21;100111.84;;;20.90;99.99
56681;BME280;42558;52.388;13.390;2023-07-28T12:50:49;100113.14;;;20.32;100.00
56681;BME280;42558;52.388;13.390;2023-07-28T12:53:32;100113.14;;;19.77;100.00
56681;BME280;42558;52.388;13.390;2023-07-28T12:56:01;100109.05;;;19.67;100.00
56681;BME280;42558;52.388;13.390;2023-07-28T12:58:29;100107.19;;;19.64;100.00
56681;BME280;42558;52.388;13.390;2023-07-28T13:01:03;100102.31;;;19.91;100.00
56681;BME280;42558;52.388;13.390;2023-07-28T13:03:34;100104.20;;;20.18;100.00